createdAt,value
2023-03-21T00:01:15.435Z,10.25
2023-03-21T00:04:20.574Z,8.68
2023-03-21T00:07:24.677Z,6.15
2023-03-21T00:10:39.891Z,8.83
2023-03-21T00:13:48.560Z,7.22
2023-03-21T00:16:53.374Z,11.07
2023-03-21T00:20:06.880Z,8.93
2023-03-21T00:23:11.914Z,7.13
2023-03-21T00:26:17.173Z,8.48
2023-03-21T00:29:21.757Z,8.65
2023-03-21T00:32:26.468Z,11.60
2023-03-21T00:38:55.746Z,9.82
2023-03-21T00:42:00.289Z,14.77
2023-03-21T00:45:06.597Z,13.98
2023-03-21T00:48:11.077Z,20.10
2023-03-21T00:51:26.235Z,17.67
2023-03-21T00:54:30.816Z,13.52
2023-03-21T00:57:39.288Z,13.73
2023-03-21T01:00:46.958Z,12.98
2023-03-21T01:04:05.306Z,18.35
2023-03-21T01:07:10.079Z,21.25
2023-03-21T01:10:16.202Z,11.30
2023-03-21T01:13:23.453Z,9.85
2023-03-21T01:16:28.238Z,16.92
2023-03-21T01:19:48.651Z,10.43
2023-03-21T01:22:55.803Z,12.98
2023-03-21T01:26:00.382Z,10.43
2023-03-21T01:29:05.584Z,9.10
2023-03-21T01:32:10.417Z,12.38
2023-03-21T01:35:14.986Z,9.93
2023-03-21T01:38:19.387Z,12.37
2023-03-21T01:41:43.710Z,16.17
2023-03-21T01:45:04.911Z,9.45
2023-03-21T01:48:22.774Z,11.77
2023-03-21T01:51:34.542Z,9.52
2023-03-21T01:54:41.356Z,11.00
2023-03-21T01:58:04.705Z,10.18
2023-03-21T02:01:17.152Z,10.73
2023-03-21T02:04:28.289Z,19.98
2023-03-21T02:07:50.888Z,10.43
2023-03-21T02:10:55.871Z,10.70
2023-03-21T02:14:26.593Z,10.93
2023-03-21T02:18:07.065Z,6.40
2023-03-21T02:21:51.014Z,15.13
2023-03-21T02:25:13.234Z,10.13
2023-03-21T02:28:26.632Z,11.75
2023-03-21T02:31:47.055Z,17.27
2023-03-21T02:35:14.718Z,13.45
2023-03-21T02:38:42.714Z,13.80
2023-03-21T02:42:11.440Z,8.93
2023-03-21T02:45:20.243Z,10.48
2023-03-21T02:48:49.703Z,18.08
2023-03-21T02:52:12.230Z,14.32
2023-03-21T02:55:27.106Z,17.52
2023-03-21T02:58:41.104Z,15.43
2023-03-21T03:01:45.916Z,15.38
2023-03-21T03:04:50.336Z,12.77
2023-03-21T03:08:43.224Z,19.50
2023-03-21T03:12:04.224Z,20.23
2023-03-21T03:16:05.216Z,22.00
2023-03-21T03:19:17.194Z,19.73
2023-03-21T03:23:02.364Z,25.80
2023-03-21T03:26:15.291Z,23.40
2023-03-21T03:29:21.845Z,25.85
2023-03-21T03:32:50.203Z,22.50
2023-03-21T03:36:04.974Z,38.63
2023-03-21T03:39:14.499Z,22.95
2023-03-21T03:42:31.796Z,28.25
2023-03-21T03:45:50.215Z,17.88
2023-03-21T03:49:02.337Z,20.63
2023-03-21T03:52:32.418Z,18.55
2023-03-21T03:55:43.710Z,20.35
2023-03-21T03:58:51.613Z,23.27
2023-03-21T04:02:00.580Z,128.00
2023-03-21T04:05:05.645Z,23.30
2023-03-21T04:08:10.379Z,26.70
2023-03-21T04:11:19.833Z,30.65
2023-03-21T04:14:35.684Z,18.80
2023-03-21T04:17:47.993Z,13.50
2023-03-21T04:20:52.629Z,16.60
2023-03-21T04:23:57.468Z,19.83
2023-03-21T04:27:02.052Z,22.40
2023-03-21T04:30:39.264Z,54.15
2023-03-21T04:33:50.677Z,98.55
2023-03-21T04:36:55.898Z,27.30
2023-03-21T04:43:05.152Z,33.10
2023-03-21T04:46:09.449Z,40.67
2023-03-21T04:49:13.769Z,36.93
2023-03-21T04:52:20.604Z,28.80
2023-03-21T04:55:27.954Z,45.20
2023-03-21T04:58:32.505Z,34.50
2023-03-21T05:01:37.123Z,47.63
2023-03-21T05:07:46.820Z,31.35
2023-03-21T05:10:51.430Z,45.05
2023-03-21T05:13:56.872Z,64.32
2023-03-21T05:17:05.352Z,26.58
2023-03-21T05:20:11.475Z,21.85
2023-03-21T05:23:18.531Z,52.78
2023-03-21T05:26:23.221Z,42.20
2023-03-21T05:29:36.794Z,50.63
2023-03-21T05:32:43.516Z,23.23
2023-03-21T05:35:52.438Z,69.78
2023-03-21T05:38:57.752Z,86.78
2023-03-21T05:42:01.969Z,80.28
2023-03-21T05:45:07.490Z,98.32
2023-03-21T05:48:13.089Z,50.53
2023-03-21T05:51:35.294Z,49.25
2023-03-21T05:54:39.897Z,54.15
2023-03-21T05:57:44.186Z,72.57
2023-03-21T06:00:55.776Z,67.30
2023-03-21T06:04:07.902Z,46.00
2023-03-21T06:10:19.022Z,66.63
2023-03-21T06:13:26.049Z,60.00
2023-03-21T06:16:31.076Z,72.65
2023-03-21T06:19:35.954Z,91.03
2023-03-21T06:22:47.363Z,57.95
2023-03-21T06:25:51.932Z,87.97
2023-03-21T06:28:56.501Z,54.92
2023-03-21T06:32:01.273Z,86.70
2023-03-21T06:35:06.587Z,87.13
2023-03-21T06:38:11.533Z,46.60
2023-03-21T06:41:17.152Z,86.30
2023-03-21T06:44:29.323Z,57.72
2023-03-21T06:47:41.281Z,40.25
2023-03-21T06:50:54.563Z,54.28
2023-03-21T06:54:01.149Z,26.70
2023-03-21T06:57:18.077Z,39.83
2023-03-21T07:00:23.392Z,33.17
2023-03-21T07:03:29.643Z,45.30
2023-03-21T07:06:38.157Z,25.83
2023-03-21T07:09:43.422Z,54.72
2023-03-21T07:12:47.925Z,43.65
2023-03-21T07:16:01.617Z,51.95
2023-03-21T07:19:05.959Z,39.03
2023-03-21T07:22:10.660Z,50.78
2023-03-21T07:25:17.251Z,55.65
2023-03-21T07:28:23.022Z,49.53
2023-03-21T07:31:29.563Z,103.93
2023-03-21T07:34:34.104Z,50.72
2023-03-21T07:37:40.980Z,92.55
2023-03-21T07:40:46.726Z,137.57
2023-03-21T07:43:51.289Z,101.93
2023-03-21T07:46:56.595Z,59.17
2023-03-21T07:50:04.432Z,72.25
2023-03-21T07:53:09.598Z,43.10
2023-03-21T07:56:14.409Z,186.43
2023-03-21T07:59:18.699Z,111.47
2023-03-21T08:02:23.212Z,60.07
2023-03-21T08:05:38.782Z,86.68
2023-03-21T08:08:43.610Z,65.53
2023-03-21T08:11:47.997Z,78.97
2023-03-21T08:14:52.253Z,37.05
2023-03-21T08:17:59.138Z,72.73
2023-03-21T08:21:03.956Z,21.88
2023-03-21T08:24:08.636Z,44.97
2023-03-21T08:27:13.125Z,28.88
2023-03-21T08:30:22.876Z,15.73
2023-03-21T08:33:27.433Z,29.98
2023-03-21T08:36:32.253Z,16.20
2023-03-21T08:39:37.059Z,17.05
2023-03-21T08:42:42.749Z,24.25
2023-03-21T08:45:47.429Z,19.73
2023-03-21T08:48:52.205Z,19.00
2023-03-21T08:51:56.951Z,19.98
2023-03-21T08:55:02.235Z,19.67
2023-03-21T08:58:07.302Z,16.17
2023-03-21T09:01:15.652Z,19.95
2023-03-21T09:04:20.530Z,14.88
2023-03-21T09:07:26.295Z,13.15
2023-03-21T09:10:30.869Z,14.13
2023-03-21T09:13:35.469Z,13.02
2023-03-21T09:16:39.688Z,15.98
2023-03-21T09:19:44.568Z,8.50
2023-03-21T09:25:54.662Z,7.40
2023-03-21T09:29:00.848Z,11.65
2023-03-21T09:32:06.695Z,10.30
2023-03-21T09:35:12.756Z,12.23
2023-03-21T09:38:17.415Z,8.98
2023-03-21T09:41:43.176Z,15.88
2023-03-21T09:45:04.933Z,9.70
2023-03-21T09:48:22.451Z,11.05
2023-03-21T09:51:31.404Z,11.13
2023-03-21T09:54:40.515Z,14.65
2023-03-21T09:57:48.498Z,15.38
2023-03-21T10:01:01.154Z,12.82
2023-03-21T10:04:09.239Z,10.48
2023-03-21T10:07:18.061Z,11.25
2023-03-21T10:10:29.264Z,8.32
2023-03-21T10:13:37.580Z,7.55
2023-03-21T10:16:47.293Z,11.88
2023-03-21T10:20:15.261Z,11.75
2023-03-21T10:23:23.012Z,13.13
2023-03-21T10:26:30.575Z,15.20
2023-03-21T10:29:44.497Z,12.93
2023-03-21T10:32:49.093Z,17.60
2023-03-21T10:39:01.608Z,10.93
2023-03-21T10:42:06.768Z,14.55
2023-03-21T10:45:20.014Z,16.05
2023-03-21T10:48:25.679Z,16.50
2023-03-21T10:51:36.987Z,15.32
2023-03-21T10:54:42.518Z,16.83
2023-03-21T10:57:48.069Z,19.85
2023-03-21T11:00:58.163Z,17.10
2023-03-21T11:04:22.272Z,18.92
2023-03-21T11:07:31.158Z,24.17
2023-03-21T11:11:00.796Z,25.80
2023-03-21T11:14:09.414Z,27.90
2023-03-21T11:17:16.967Z,26.20
2023-03-21T11:20:21.877Z,27.02
2023-03-21T11:23:31.986Z,27.02
2023-03-21T11:26:37.685Z,27.27
2023-03-21T11:29:48.882Z,36.22
2023-03-21T11:32:58.426Z,28.48
2023-03-21T11:36:06.607Z,37.60
2023-03-21T11:39:23.313Z,33.25
2023-03-21T11:42:32.773Z,37.00
2023-03-21T11:45:38.806Z,42.03
2023-03-21T11:48:47.023Z,33.95
2023-03-21T11:52:17.819Z,35.80
2023-03-21T11:56:01.836Z,34.10
2023-03-21T11:59:16.108Z,30.98
2023-03-21T12:02:54.946Z,25.73
2023-03-21T12:06:03.224Z,31.80
2023-03-21T12:09:29.436Z,35.30
2023-03-21T12:13:01.528Z,27.02
2023-03-21T12:16:22.439Z,33.28
2023-03-21T12:19:53.768Z,27.95
2023-03-21T12:23:19.087Z,27.23
2023-03-21T12:30:00.782Z,19.10
2023-03-21T12:33:13.629Z,27.42
2023-03-21T12:36:39.678Z,26.40
2023-03-21T12:39:48.020Z,24.15
2023-03-21T12:43:19.328Z,18.02
2023-03-21T12:46:36.766Z,19.10
2023-03-21T12:49:56.966Z,18.70
2023-03-21T12:53:51.036Z,18.67
2023-03-21T12:56:59.492Z,14.30
2023-03-21T13:00:13.755Z,14.90
2023-03-21T13:03:39.122Z,14.73
2023-03-21T13:06:47.210Z,13.82
2023-03-21T13:09:54.961Z,17.95
2023-03-21T13:13:18.380Z,17.00
2023-03-21T13:17:00.979Z,18.13
2023-03-21T13:20:26.431Z,23.77
2023-03-21T13:23:39.210Z,18.35
2023-03-21T13:26:49.887Z,27.00
2023-03-21T13:29:59.952Z,25.33
2023-03-21T13:33:12.980Z,24.65
2023-03-21T13:36:28.061Z,30.70
2023-03-21T13:39:32.440Z,28.00
2023-03-21T13:42:44.584Z,39.80
2023-03-21T13:45:53.831Z,38.47
2023-03-21T13:49:02.599Z,44.58
2023-03-21T13:52:09.756Z,52.38
2023-03-21T13:55:20.443Z,55.05
2023-03-21T13:58:52.003Z,56.00
2023-03-21T14:02:04.201Z,58.45
2023-03-21T14:05:20.555Z,57.17
2023-03-21T14:08:37.109Z,57.70
2023-03-21T14:11:46.791Z,64.18
2023-03-21T14:15:15.832Z,60.70
2023-03-21T14:18:35.041Z,48.40
2023-03-21T14:21:50.226Z,52.65
2023-03-21T14:25:02.312Z,58.58
2023-03-21T14:28:13.926Z,53.40
2023-03-21T14:31:19.656Z,55.00
2023-03-21T14:34:27.143Z,49.45
2023-03-21T14:37:40.155Z,55.60
2023-03-21T14:40:52.595Z,50.85
2023-03-21T14:44:28.113Z,49.95
2023-03-21T14:47:32.780Z,50.00
2023-03-21T14:51:09.298Z,45.03
2023-03-21T14:54:18.313Z,44.38
2023-03-21T14:57:27.312Z,41.60
2023-03-21T15:00:33.208Z,41.65
2023-03-21T15:03:37.931Z,43.65
2023-03-21T15:06:51.590Z,42.45
2023-03-21T15:09:58.464Z,36.00
2023-03-21T15:13:12.908Z,36.00
2023-03-21T15:16:18.222Z,39.38
2023-03-21T15:22:37.956Z,42.80
2023-03-21T15:25:43.137Z,36.35
2023-03-21T15:28:50.703Z,45.60
2023-03-21T15:31:55.340Z,39.42
2023-03-21T15:35:13.325Z,35.08
2023-03-21T15:38:50.831Z,35.42
2023-03-21T15:42:27.387Z,31.55
2023-03-21T15:45:32.223Z,39.78
2023-03-21T15:48:36.514Z,31.35
2023-03-21T15:51:44.682Z,32.65
2023-03-21T15:54:55.640Z,36.40
2023-03-21T15:58:04.545Z,35.78
2023-03-21T16:01:22.488Z,29.52
2023-03-21T16:04:26.955Z,24.33
2023-03-21T16:07:34.992Z,28.88
2023-03-21T16:10:39.839Z,25.85
2023-03-21T16:13:44.306Z,26.00
2023-03-21T16:16:49.503Z,24.92
2023-03-21T16:22:59.205Z,19.85
2023-03-21T16:26:05.104Z,20.75
2023-03-21T16:29:12.173Z,22.45
2023-03-21T16:32:18.329Z,23.80
2023-03-21T16:35:24.490Z,22.52
2023-03-21T16:38:29.108Z,25.40
2023-03-21T16:41:33.722Z,23.50
2023-03-21T16:47:44.759Z,24.30
2023-03-21T16:50:49.547Z,18.83
2023-03-21T16:53:54.239Z,22.55
2023-03-21T16:56:59.458Z,19.85
2023-03-21T17:00:11.385Z,16.17
2023-03-21T17:03:19.706Z,17.63
2023-03-21T17:06:26.549Z,18.08
2023-03-21T17:09:31.213Z,17.67
2023-03-21T17:12:35.421Z,20.02
2023-03-21T17:15:41.448Z,18.80
2023-03-21T17:18:45.812Z,18.00
2023-03-21T17:21:50.239Z,17.63
2023-03-21T17:24:54.902Z,18.85
2023-03-21T17:27:59.283Z,18.88
2023-03-21T17:31:04.552Z,21.70
2023-03-21T17:34:09.696Z,22.48
2023-03-21T17:37:14.579Z,17.27
2023-03-21T17:40:30.628Z,13.70
2023-03-21T17:43:35.550Z,19.75
2023-03-21T17:46:40.391Z,18.63
2023-03-21T17:52:50.927Z,14.82
2023-03-21T17:55:55.814Z,16.58
2023-03-21T17:59:14.061Z,16.45
2023-03-21T18:02:18.353Z,17.67
2023-03-21T18:05:24.754Z,14.38
2023-03-21T18:08:29.815Z,17.05
2023-03-21T18:11:34.175Z,17.52
2023-03-21T18:14:40.640Z,16.95
2023-03-21T18:17:45.169Z,19.52
2023-03-21T18:20:53.027Z,16.38
2023-03-21T18:23:57.843Z,19.33
2023-03-21T18:27:02.884Z,13.57
2023-03-21T18:33:36.711Z,18.63
2023-03-21T18:36:42.747Z,27.38
2023-03-21T18:39:48.456Z,23.23
2023-03-21T18:43:45.602Z,24.05
2023-03-21T18:46:17.911Z,19.33
2023-03-21T18:52:48.046Z,20.13
2023-03-21T18:55:52.690Z,14.10
2023-03-21T18:58:57.091Z,13.90
2023-03-21T19:02:02.174Z,19.10
2023-03-21T19:05:07.039Z,21.20
2023-03-21T19:08:11.883Z,23.77
2023-03-21T19:11:21.106Z,22.50
2023-03-21T19:14:25.478Z,24.20
2023-03-21T19:20:54.655Z,20.35
2023-03-21T19:24:25.153Z,20.38
2023-03-21T19:27:24.161Z,15.67
2023-03-21T19:30:28.297Z,20.58
2023-03-21T19:33:33.263Z,22.10
2023-03-21T19:36:37.327Z,18.80
2023-03-21T19:39:41.701Z,20.65
2023-03-21T19:42:46.397Z,20.95
2023-03-21T19:45:52.442Z,22.23
2023-03-21T19:48:57.561Z,20.85
2023-03-21T19:52:01.806Z,19.77
2023-03-21T19:55:06.858Z,21.67
2023-03-21T20:01:16.213Z,23.13
2023-03-21T20:07:26.036Z,23.88
2023-03-21T20:10:30.642Z,24.52
2023-03-21T20:13:35.043Z,24.92
2023-03-21T20:16:43.315Z,24.13
2023-03-21T20:19:48.148Z,27.08
2023-03-21T20:23:06.856Z,25.83
2023-03-21T20:26:13.943Z,25.13
2023-03-21T20:32:45.791Z,22.40
2023-03-21T20:39:29.456Z,24.40
2023-03-21T20:42:37.510Z,21.65
2023-03-21T20:45:42.130Z,25.35
2023-03-21T20:48:49.152Z,24.23
2023-03-21T20:55:20.575Z,23.73
2023-03-21T20:58:54.806Z,24.25
2023-03-21T21:01:49.530Z,21.33
2023-03-21T21:05:24.268Z,24.87
2023-03-21T21:14:49.045Z,25.70
2023-03-21T21:18:06.612Z,25.25
2023-03-21T21:21:12.046Z,23.63
2023-03-21T21:24:16.550Z,27.77
2023-03-21T21:27:20.881Z,26.50
2023-03-21T21:30:25.376Z,22.10
2023-03-21T21:33:29.960Z,22.50
2023-03-21T21:36:34.670Z,21.90
2023-03-21T21:39:40.131Z,23.27
2023-03-21T21:42:45.020Z,23.58
2023-03-21T21:48:53.572Z,24.33
2023-03-21T21:51:59.791Z,23.23
2023-03-21T21:55:06.482Z,24.60
2023-03-21T21:58:13.389Z,27.70
2023-03-21T22:01:20.810Z,28.52
2023-03-21T22:04:27.780Z,27.98
2023-03-21T22:07:32.676Z,28.75
2023-03-21T22:10:37.345Z,25.33
2023-03-21T22:13:43.548Z,28.15
2023-03-21T22:16:47.947Z,29.15
2023-03-21T22:20:04.729Z,23.20
2023-03-21T22:23:10.441Z,24.90
2023-03-21T22:26:15.105Z,24.52
2023-03-21T22:32:24.188Z,23.55
2023-03-21T22:35:28.665Z,25.20
2023-03-21T22:38:34.612Z,24.80
2023-03-21T22:41:38.930Z,29.75
2023-03-21T22:44:43.412Z,29.55
2023-03-21T22:47:47.636Z,26.33
2023-03-21T22:50:51.918Z,25.23
2023-03-21T22:53:56.491Z,28.88
2023-03-21T22:57:01.054Z,29.33
2023-03-21T23:00:13.120Z,32.08
2023-03-21T23:03:18.042Z,34.97
2023-03-21T23:09:27.369Z,26.20
2023-03-21T23:12:32.162Z,33.45
2023-03-21T23:15:38.496Z,34.58
2023-03-21T23:18:43.612Z,34.90
2023-03-21T23:21:48.582Z,32.92
2023-03-21T23:24:53.113Z,39.20
2023-03-21T23:27:57.318Z,39.45
2023-03-21T23:31:13.780Z,44.58
2023-03-21T23:34:18.514Z,37.25
2023-03-21T23:37:24.838Z,40.20
2023-03-21T23:40:29.384Z,41.45
2023-03-21T23:43:33.909Z,44.20
2023-03-21T23:46:38.364Z,51.13
2023-03-21T23:49:49.161Z,55.67
2023-03-21T23:52:53.537Z,51.72
2023-03-21T23:55:58.472Z,64.35
2023-03-21T23:59:03.430Z,64.10
